Time;durP1;ratioP1;P1;durP2;ratioP2;P2;SDS_P1;SDS_P2;PMS_P1;PMS_P2;Temp;Humidity;BMP_temperature;BMP_pressure;BME280_temperature;BME280_humidity;BME280_pressure;Samples;Min_cycle;Max_cycle;Signal;HPM_P1;HPM_P2
2022/10/22 00:00:32;;;;;;;6.32;4.25;;;14.20;90.30;;;;;;9176938;19;20014;-64
2022/10/22 00:03:36;;;;;;;7.90;3.45;;;14.10;90.30;;;;;;9174978;19;20094;-62
2022/10/22 00:06:43;;;;;;;;;;;14.10;90.30;;;;;;9173200;19;20006;-61
2022/10/22 00:09:48;;;;;;;5.25;3.60;;;14.10;90.30;;;;;;9174743;19;19933;-64
2022/10/22 00:12:51;;;;;;;7.15;3.85;;;14.10;90.30;;;;;;9175569;19;20010;-61
2022/10/22 00:15:55;;;;;;;12.38;3.75;;;14.10;90.30;;;;;;9179040;19;20098;-61
2022/10/22 00:18:58;;;;;;;9.20;3.92;;;14.00;90.30;;;;;;9183437;19;20015;-63
2022/10/22 00:22:04;;;;;;;18.20;3.78;;;14.00;90.30;;;;;;9183172;19;20019;-61
2022/10/22 00:25:09;;;;;;;9.68;3.90;;;14.00;90.40;;;;;;9184089;19;20902;-62
2022/10/22 00:28:13;;;;;;;9.07;3.80;;;14.00;90.30;;;;;;9183833;19;20018;-63
2022/10/22 00:31:18;;;;;;;5.93;4.00;;;14.00;90.40;;;;;;9179684;19;20019;-62
2022/10/22 00:34:23;;;;;;;12.18;3.80;;;14.00;90.40;;;;;;9183622;19;20035;-63
2022/10/22 00:37:29;;;;;;;9.90;4.55;;;14.00;90.40;;;;;;9183326;19;20019;-62
2022/10/22 00:40:33;;;;;;;9.57;4.43;;;13.90;90.40;;;;;;9183936;19;20026;-63
2022/10/22 00:43:55;;;;;;;9.65;4.28;;;13.90;90.40;;;;;;9182978;19;20010;-64
2022/10/22 00:46:58;;;;;;;9.60;5.18;;;13.90;90.40;;;;;;9181597;19;20035;-61
2022/10/22 00:50:04;;;;;;;12.05;4.75;;;13.90;90.40;;;;;;9181463;19;20014;-63
2022/10/22 00:53:13;;;;;;;10.95;4.72;;;13.90;90.40;;;;;;9182303;19;20014;-62
2022/10/22 00:56:18;;;;;;;9.82;4.35;;;13.90;90.40;;;;;;9181586;19;20053;-62
2022/10/22 00:59:22;;;;;;;11.10;4.82;;;13.80;90.40;;;;;;9182456;19;20044;-63
2022/10/22 01:02:26;;;;;;;;;;;13.90;90.50;;;;;;9184286;19;20014;-63
2022/10/22 01:05:31;;;;;;;10.25;4.03;;;13.90;90.50;;;;;;9179328;19;19923;-64
2022/10/22 01:08:43;;;;;;;8.27;5.13;;;13.90;90.40;;;;;;9182098;19;20349;-62
2022/10/22 01:11:59;;;;;;;10.30;4.75;;;13.80;90.40;;;;;;9181712;19;20502;-63
2022/10/22 01:15:12;;;;;;;6.35;4.45;;;13.90;90.50;;;;;;9182689;19;20347;-62
2022/10/22 01:18:22;;;;;;;9.07;4.65;;;13.80;90.40;;;;;;9182913;19;20025;-64
2022/10/22 01:21:33;;;;;;;12.35;4.85;;;13.80;90.40;;;;;;9182434;19;20044;-64
2022/10/22 01:24:47;;;;;;;9.40;4.68;;;13.80;90.50;;;;;;9179613;19;20014;-64
2022/10/22 01:28:02;;;;;;;8.32;4.70;;;13.80;90.50;;;;;;9176580;19;20474;-61
2022/10/22 01:31:09;;;;;;;9.50;4.55;;;13.80;90.50;;;;;;9177010;19;20653;-62
2022/10/22 01:34:15;;;;;;;8.10;5.22;;;13.80;90.50;;;;;;9179858;19;20786;-64
2022/10/22 01:37:22;;;;;;;8.43;4.97;;;13.80;90.50;;;;;;9181544;19;20018;-61
2022/10/22 01:40:27;;;;;;;10.35;5.25;;;13.70;90.50;;;;;;9181924;19;20506;-63
2022/10/22 01:43:30;;;;;;;8.80;4.60;;;13.70;90.50;;;;;;9179786;19;20015;-63
2022/10/22 01:46:37;;;;;;;9.05;5.28;;;13.70;90.50;;;;;;9180191;19;20015;-65
2022/10/22 01:50:07;;;;;;;10.82;5.15;;;13.70;90.80;;;;;;9182060;19;20086;-64
2022/10/22 01:53:19;;;;;;;10.40;5.22;;;13.70;90.50;;;;;;9181336;19;20467;-63
2022/10/22 01:56:37;;;;;;;7.20;4.60;;;13.70;90.50;;;;;;9180842;19;20038;-62
2022/10/22 01:59:50;;;;;;;9.13;5.03;;;13.70;90.50;;;;;;9180016;19;20074;-65
2022/10/22 02:03:03;;;;;;;11.63;5.15;;;13.70;90.50;;;;;;9180616;19;20069;-63
2022/10/22 02:06:13;;;;;;;7.18;4.30;;;13.70;90.50;;;;;;9180225;19;20098;-63
2022/10/22 02:09:18;;;;;;;13.43;5.10;;;13.70;90.50;;;;;;9180776;19;20011;-65
2022/10/22 02:12:24;;;;;;;13.38;5.07;;;13.60;90.50;;;;;;9180809;19;20104;-62
2022/10/22 02:15:30;;;;;;;11.55;5.07;;;13.60;90.50;;;;;;9181150;19;20010;-65
2022/10/22 02:18:37;;;;;;;11.25;4.85;;;13.60;90.50;;;;;;9179793;19;20443;-62
2022/10/22 02:21:42;;;;;;;10.80;5.28;;;13.60;90.50;;;;;;9180480;19;20075;-62
2022/10/22 02:24:46;;;;;;;10.52;5.25;;;13.60;90.50;;;;;;9180363;19;20046;-63
2022/10/22 02:27:55;;;;;;;8.43;4.50;;;13.50;90.50;;;;;;9176979;19;20024;-64
2022/10/22 02:31:07;;;;;;;12.90;5.53;;;13.50;90.50;;;;;;9175687;19;20071;-62
2022/10/22 02:34:18;;;;;;;10.00;5.15;;;13.50;90.50;;;;;;9180290;19;20030;-62
2022/10/22 02:37:23;;;;;;;10.05;5.47;;;13.50;90.50;;;;;;9179234;19;20017;-64
2022/10/22 02:40:27;;;;;;;11.15;5.40;;;13.40;90.50;;;;;;9179020;19;20022;-62
2022/10/22 02:43:31;;;;;;;12.88;5.38;;;13.40;90.50;;;;;;9181035;19;20082;-62
2022/10/22 02:46:35;;;;;;;6.80;4.68;;;13.40;90.50;;;;;;9178395;19;20016;-63
2022/10/22 02:49:40;;;;;;;10.10;6.15;;;13.40;90.50;;;;;;9179730;19;20022;-62
2022/10/22 02:52:44;;;;;;;14.10;6.10;;;13.40;90.50;;;;;;9179904;19;20007;-62
2022/10/22 02:55:48;;;;;;;10.13;5.50;;;13.40;90.50;;;;;;9177789;19;20048;-63
2022/10/22 02:58:51;;;;;;;12.35;5.97;;;13.40;90.50;;;;;;9178888;19;20018;-62
2022/10/22 03:01:55;;;;;;;11.40;5.88;;;13.30;90.50;;;;;;9179151;19;20036;-62
2022/10/22 03:05:00;;;;;;;11.45;6.35;;;13.30;90.80;;;;;;9175820;19;20025;-63
2022/10/22 03:08:04;;;;;;;16.50;5.78;;;13.30;90.50;;;;;;9175528;19;20754;-62
2022/10/22 03:11:08;;;;;;;14.73;6.20;;;13.30;90.50;;;;;;9178038;19;20478;-61
2022/10/22 03:14:12;;;;;;;13.18;6.20;;;13.30;90.50;;;;;;9177748;19;20047;-63
2022/10/22 03:17:15;;;;;;;15.85;6.75;;;13.20;90.50;;;;;;9178526;19;20029;-62
2022/10/22 03:20:21;;;;;;;15.82;6.35;;;13.20;90.50;;;;;;9178132;19;20488;-63
2022/10/22 03:23:25;;;;;;;14.43;5.80;;;13.20;90.50;;;;;;9178187;19;20014;-63
2022/10/22 03:26:28;;;;;;;23.25;6.82;;;13.20;90.60;;;;;;9175831;19;20082;-62
2022/10/22 03:29:33;;;;;;;17.23;6.53;;;13.20;90.60;;;;;;9173232;19;20018;-64
2022/10/22 03:32:37;;;;;;;15.15;5.75;;;13.20;90.60;;;;;;9177840;19;20500;-61
2022/10/22 03:35:47;;;;;;;13.73;6.43;;;13.20;90.60;;;;;;9177735;19;20014;-63
2022/10/22 03:38:51;;;;;;;15.43;6.03;;;13.20;90.60;;;;;;9177605;19;20622;-62
2022/10/22 03:41:55;;;;;;;17.67;6.03;;;13.20;90.60;;;;;;9177060;19;20022;-61
2022/10/22 03:44:58;;;;;;;15.65;6.50;;;13.10;90.60;;;;;;9175949;19;20130;-64
2022/10/22 03:48:02;;;;;;;14.45;6.43;;;13.10;90.60;;;;;;9173359;19;20010;-63
2022/10/22 03:51:08;;;;;;;21.10;6.57;;;13.10;90.60;;;;;;9180346;19;20021;-64
2022/10/22 03:54:12;;;;;;;14.75;6.55;;;13.10;90.60;;;;;;9182798;19;20025;-64
2022/10/22 03:57:16;;;;;;;13.75;6.35;;;13.10;90.60;;;;;;9185215;19;20025;-63
2022/10/22 04:00:20;;;;;;;19.58;7.28;;;13.10;90.60;;;;;;9184174;19;20018;-64
2022/10/22 04:03:23;;;;;;;13.73;6.32;;;13.10;90.60;;;;;;9184887;19;20515;-63
2022/10/22 04:06:30;;;;;;;14.05;7.18;;;13.10;90.70;;;;;;9184603;19;20011;-63
2022/10/22 04:09:35;;;;;;;14.57;6.68;;;13.10;90.60;;;;;;9184782;19;20045;-62
2022/10/22 04:12:38;;;;;;;13.38;5.95;;;13.10;90.70;;;;;;9184651;19;20085;-64
2022/10/22 04:15:42;;;;;;;18.13;6.20;;;13.10;90.60;;;;;;9184773;19;20019;-62
2022/10/22 04:18:47;;;;;;;16.27;6.80;;;13.00;90.60;;;;;;9184076;19;20027;-63
2022/10/22 04:21:53;;;;;;;16.80;6.72;;;13.00;90.60;;;;;;9184339;19;20044;-65
2022/10/22 04:24:56;;;;;;;17.63;6.82;;;13.00;90.60;;;;;;9183297;19;20029;-61
2022/10/22 04:28:00;;;;;;;14.07;6.40;;;13.00;90.60;;;;;;9181900;19;20086;-65
2022/10/22 04:31:09;;;;;;;15.48;6.07;;;13.00;90.60;;;;;;9179340;19;20354;-62
2022/10/22 04:34:13;;;;;;;12.77;6.18;;;13.00;90.60;;;;;;9183648;19;20048;-62
2022/10/22 04:37:18;;;;;;;13.88;5.72;;;13.00;90.60;;;;;;9181903;19;20016;-63
2022/10/22 04:40:22;;;;;;;14.25;6.28;;;12.90;90.60;;;;;;9184531;19;20027;-63
2022/10/22 04:43:26;;;;;;;16.63;6.38;;;12.90;90.60;;;;;;9183558;19;20013;-61
2022/10/22 04:46:32;;;;;;;17.30;5.97;;;12.90;90.60;;;;;;9181944;19;20025;-61
2022/10/22 04:49:35;;;;;;;12.23;6.30;;;12.90;90.60;;;;;;9181026;19;20033;-63
2022/10/22 04:52:41;;;;;;;16.42;6.28;;;12.80;90.60;;;;;;9181051;19;20014;-62
2022/10/22 04:55:44;;;;;;;19.75;6.35;;;12.80;90.60;;;;;;9181840;19;20069;-61
2022/10/22 04:58:49;;;;;;;13.57;6.40;;;12.80;90.60;;;;;;9181626;19;20374;-63
2022/10/22 05:01:53;;;;;;;18.23;6.50;;;12.80;90.60;;;;;;9183510;19;20028;-64
2022/10/22 05:04:57;;;;;;;22.40;6.90;;;12.80;90.70;;;;;;9181031;19;20006;-64
2022/10/22 05:08:02;;;;;;;12.55;5.93;;;12.70;90.70;;;;;;9180293;19;20350;-62
2022/10/22 05:11:13;;;;;;;11.65;6.13;;;12.80;90.70;;;;;;9182467;19;20021;-63
2022/10/22 05:14:18;;;;;;;14.02;5.68;;;12.80;90.70;;;;;;9182310;19;20047;-65
2022/10/22 05:17:21;;;;;;;15.63;5.90;;;12.70;90.70;;;;;;9181856;19;20475;-64
2022/10/22 05:20:25;;;;;;;18.58;6.80;;;12.70;90.70;;;;;;9182631;19;20017;-64
2022/10/22 05:23:31;;;;;;;14.20;6.47;;;12.70;90.70;;;;;;9182247;19;20021;-64
2022/10/22 05:26:34;;;;;;;18.90;6.78;;;12.70;90.70;;;;;;9179266;19;20070;-61
2022/10/22 05:29:38;;;;;;;17.58;7.30;;;12.70;90.70;;;;;;9177891;19;20015;-62
2022/10/22 05:32:42;;;;;;;17.20;6.85;;;12.70;90.70;;;;;;9182542;19;20021;-62
2022/10/22 05:35:45;;;;;;;14.07;5.97;;;12.70;90.80;;;;;;9183048;19;20089;-63
2022/10/22 05:38:52;;;;;;;22.25;6.07;;;12.70;90.80;;;;;;9181862;19;20356;-63
2022/10/22 05:41:55;;;;;;;15.93;6.68;;;12.70;90.80;;;;;;9181032;19;20369;-62
2022/10/22 05:44:59;;;;;;;17.17;6.30;;;12.70;90.80;;;;;;9178950;19;20022;-62
2022/10/22 05:48:03;;;;;;;17.42;6.80;;;12.70;90.80;;;;;;9178862;19;20102;-63
2022/10/22 05:51:09;;;;;;;14.43;6.32;;;12.80;90.80;;;;;;9180503;19;20102;-63
2022/10/22 05:54:20;;;;;;;15.25;6.68;;;12.80;90.80;;;;;;9181868;19;20011;-63
2022/10/22 05:57:24;;;;;;;17.23;6.53;;;12.80;90.80;;;;;;9181479;19;20018;-63
2022/10/22 06:00:28;;;;;;;17.30;6.80;;;12.80;90.80;;;;;;9180573;19;20010;-63
2022/10/22 06:03:32;;;;;;;13.45;6.68;;;12.80;90.80;;;;;;9180273;19;20847;-63
2022/10/22 06:06:38;;;;;;;14.88;7.07;;;12.80;90.90;;;;;;9180165;19;20102;-63
2022/10/22 06:09:44;;;;;;;15.15;6.82;;;12.90;90.90;;;;;;9180589;19;20509;-62
2022/10/22 06:12:48;;;;;;;21.52;7.70;;;12.90;90.90;;;;;;9178006;19;20077;-64
2022/10/22 06:15:52;;;;;;;15.50;7.13;;;12.90;90.90;;;;;;9180103;19;20407;-64
2022/10/22 06:18:55;;;;;;;;;;;12.90;90.90;;;;;;9180756;19;20531;-64
2022/10/22 06:21:59;;;;;;;20.58;6.65;;;12.90;90.90;;;;;;9179573;19;19918;-64
2022/10/22 06:25:07;;;;;;;16.40;6.57;;;13.00;90.80;;;;;;9179969;19;20393;-63
2022/10/22 06:28:10;;;;;;;17.60;6.95;;;13.00;90.90;;;;;;9176916;19;20033;-63
2022/10/22 06:31:14;;;;;;;14.10;6.47;;;13.00;90.90;;;;;;9175293;19;20100;-63
2022/10/22 06:34:18;;;;;;;14.93;6.45;;;13.00;90.90;;;;;;9179077;19;20484;-63
2022/10/22 06:37:22;;;;;;;26.48;7.13;;;13.00;90.90;;;;;;9179848;19;20017;-63
2022/10/22 06:40:27;;;;;;;16.35;7.05;;;13.00;91.00;;;;;;9178899;19;20021;-63
2022/10/22 06:43:31;;;;;;;18.98;7.18;;;13.10;91.00;;;;;;9177115;19;20044;-64
2022/10/22 06:46:35;;;;;;;19.10;7.07;;;13.10;91.00;;;;;;9178641;19;20020;-62
2022/10/22 06:49:41;;;;;;;15.30;6.57;;;13.10;91.00;;;;;;9178673;19;20042;-64
2022/10/22 06:52:45;;;;;;;17.08;6.30;;;13.10;91.00;;;;;;9179459;19;20018;-62
2022/10/22 06:55:50;;;;;;;14.18;6.53;;;13.10;91.00;;;;;;9179762;19;21010;-61
2022/10/22 06:58:56;;;;;;;16.30;6.63;;;13.10;91.00;;;;;;9177294;19;20056;-62
2022/10/22 07:01:59;;;;;;;19.13;7.05;;;13.10;91.00;;;;;;9178295;19;20019;-64
2022/10/22 07:05:03;;;;;;;20.23;6.40;;;13.20;91.10;;;;;;9176019;19;20017;-63
2022/10/22 07:08:07;;;;;;;23.02;7.55;;;13.20;91.10;;;;;;9173591;19;20050;-63
2022/10/22 07:11:14;;;;;;;19.15;6.70;;;13.20;91.10;;;;;;9176276;19;20018;-62
2022/10/22 07:14:17;;;;;;;22.75;7.13;;;13.20;91.10;;;;;;9175773;19;20026;-62
2022/10/22 07:17:21;;;;;;;18.15;6.57;;;13.30;91.10;;;;;;9175690;19;20028;-62
2022/10/22 07:20:25;;;;;;;17.17;6.78;;;13.30;91.10;;;;;;9170534;19;20014;-63
2022/10/22 07:23:29;;;;;;;18.83;7.97;;;13.30;91.20;;;;;;9174525;19;20078;-63
2022/10/22 07:26:35;;;;;;;23.38;6.82;;;13.40;91.20;;;;;;9171961;19;20019;-65
2022/10/22 07:29:39;;;;;;;22.80;6.78;;;13.40;91.20;;;;;;9172518;19;20542;-61
2022/10/22 07:32:43;;;;;;;27.30;7.20;;;13.50;91.30;;;;;;9177087;19;20380;-63
2022/10/22 07:35:46;;;;;;;17.33;7.80;;;13.50;91.30;;;;;;9175439;19;20483;-65
2022/10/22 07:38:54;;;;;;;;;;;13.60;91.30;;;;;;9172613;19;20023;-61
2022/10/22 07:42:00;;;;;;;20.95;7.60;;;13.60;91.30;;;;;;9174129;19;19914;-64
2022/10/22 07:45:03;;;;;;;22.25;7.43;;;13.70;91.30;;;;;;9172431;19;20018;-64
2022/10/22 07:48:08;;;;;;;19.63;7.55;;;13.80;91.40;;;;;;9173014;19;20082;-63
2022/10/22 07:51:12;;;;;;;28.80;8.02;;;13.90;91.40;;;;;;9172948;19;20493;-62
2022/10/22 07:54:15;;;;;;;21.63;8.07;;;13.90;91.40;;;;;;9169132;19;20025;-62
2022/10/22 07:57:21;;;;;;;27.23;8.98;;;14.00;91.50;;;;;;9171406;19;20019;-64
2022/10/22 08:00:25;;;;;;;27.58;7.57;;;14.10;91.50;;;;;;9171110;19;20018;-62
2022/10/22 08:03:29;;;;;;;30.20;7.63;;;14.20;91.50;;;;;;9167897;19;20018;-63
2022/10/22 08:06:33;;;;;;;13.30;6.95;;;14.20;91.50;;;;;;9163905;19;20022;-65
2022/10/22 08:09:36;;;;;;;27.58;8.35;;;14.30;91.50;;;;;;9164816;19;20056;-62
2022/10/22 08:12:42;;;;;;;19.60;7.22;;;14.40;91.50;;;;;;9176100;19;20015;-61
2022/10/22 08:15:47;;;;;;;19.23;6.90;;;14.40;91.60;;;;;;9167202;19;20464;-64
2022/10/22 08:18:54;;;;;;;18.67;6.50;;;14.50;91.50;;;;;;9163388;19;20025;-62
2022/10/22 08:21:58;;;;;;;20.75;6.90;;;14.60;91.60;;;;;;9161639;19;20023;-64
2022/10/22 08:25:01;;;;;;;11.82;7.07;;;14.60;91.50;;;;;;9166554;19;20014;-62
2022/10/22 08:28:07;;;;;;;17.27;5.82;;;14.70;91.60;;;;;;9164467;19;20106;-66
2022/10/22 08:31:12;;;;;;;19.70;5.93;;;14.70;91.60;;;;;;9159496;19;20030;-65
2022/10/22 08:34:15;;;;;;;18.02;5.93;;;14.80;91.60;;;;;;9162439;19;20018;-65
2022/10/22 08:37:19;;;;;;;21.60;5.07;;;14.90;91.60;;;;;;9169202;19;21555;-64
2022/10/22 08:40:27;;;;;;;19.52;5.40;;;14.90;91.60;;;;;;9173675;19;20048;-62
2022/10/22 08:44:12;;;;;;;13.95;5.50;;;15.00;91.60;;;;;;9179115;19;20011;-63
2022/10/22 08:47:34;;;;;;;15.02;5.32;;;15.00;91.60;;;;;;9180497;19;20234;-63
2022/10/22 08:50:41;;;;;;;23.08;6.35;;;15.10;91.60;;;;;;9181466;19;20018;-61
2022/10/22 08:53:59;;;;;;;14.55;4.55;;;15.20;91.60;;;;;;9171185;19;20432;-66
2022/10/22 08:57:23;;;;;;;18.02;5.07;;;15.30;91.60;;;;;;9168478;19;20019;-63
2022/10/22 09:00:35;;;;;;;12.52;4.18;;;15.30;91.60;;;;;;9167243;19;20024;-64
2022/10/22 09:03:49;;;;;;;12.98;4.65;;;15.40;91.50;;;;;;9163449;19;20455;-65
2022/10/22 09:06:54;;;;;;;29.45;5.80;;;15.50;91.60;;;;;;9166812;19;20081;-62
2022/10/22 09:10:01;;;;;;;10.30;3.95;;;15.50;91.50;;;;;;9164653;19;20019;-65
2022/10/22 09:13:05;;;;;;;16.67;4.25;;;15.60;91.50;;;;;;9165521;19;21807;-63
2022/10/22 09:16:16;;;;;;;21.90;4.70;;;15.70;91.50;;;;;;9163552;19;20027;-64
2022/10/22 09:19:31;;;;;;;11.02;3.45;;;15.70;91.50;;;;;;9169368;19;20538;-62
2022/10/22 09:22:45;;;;;;;12.23;3.50;;;15.80;91.40;;;;;;9171604;19;20014;-63
2022/10/22 09:25:51;;;;;;;15.82;2.83;;;15.90;91.40;;;;;;9176608;19;20022;-68
2022/10/22 09:28:55;;;;;;;10.45;2.95;;;15.90;91.40;;;;;;9166738;19;20025;-64
2022/10/22 09:31:59;;;;;;;12.30;3.40;;;16.00;91.30;;;;;;9170995;19;20056;-65
2022/10/22 09:35:04;;;;;;;17.88;2.95;;;16.10;91.30;;;;;;9173772;19;20027;-64
2022/10/22 09:38:09;;;;;;;10.20;3.55;;;16.10;91.30;;;;;;9174148;19;20047;-65
2022/10/22 09:41:14;;;;;;;17.60;3.17;;;16.20;91.20;;;;;;9179517;19;20011;-62
2022/10/22 09:44:18;;;;;;;14.75;3.13;;;16.20;91.20;;;;;;9180262;19;20489;-64
2022/10/22 09:47:34;;;;;;;17.80;3.42;;;16.30;91.20;;;;;;9180750;19;20409;-62
2022/10/22 09:51:03;;;;;;;10.70;3.08;;;16.30;91.20;;;;;;9180941;19;20034;-63
2022/10/22 09:54:15;;;;;;;;;;;16.30;91.10;;;;;;9182693;19;20083;-61
2022/10/22 09:57:22;;;;;;;12.90;2.70;;;16.40;91.10;;;;;;9180145;19;19982;-64
2022/10/22 10:00:27;;;;;;;11.60;2.65;;;16.50;91.10;;;;;;9181200;19;20033;-63
2022/10/22 10:03:33;;;;;;;10.15;2.88;;;16.50;91.00;;;;;;9178816;19;20042;-62
2022/10/22 10:06:41;;;;;;;12.02;3.25;;;16.50;91.00;;;;;;9181024;19;20021;-63
2022/10/22 10:09:45;;;;;;;14.85;2.90;;;16.50;90.90;;;;;;9179163;19;20054;-63
2022/10/22 10:12:56;;;;;;;13.73;2.95;;;16.60;90.90;;;;;;9179821;19;20452;-62
2022/10/22 10:16:10;;;;;;;11.82;2.53;;;16.60;90.90;;;;;;9178050;19;20034;-65
2022/10/22 10:19:35;;;;;;;14.90;3.42;;;16.60;90.80;;;;;;9179177;19;20078;-63
2022/10/22 10:22:54;;;;;;;15.55;3.42;;;16.60;90.80;;;;;;9178294;19;20006;-63
2022/10/22 10:26:04;;;;;;;22.63;3.58;;;16.70;90.80;;;;;;9177433;19;20022;-62
2022/10/22 10:29:22;;;;;;;15.80;2.85;;;16.70;90.80;;;;;;9170694;19;20014;-64
2022/10/22 10:32:48;;;;;;;15.98;3.42;;;16.70;90.70;;;;;;9178177;19;20105;-62
2022/10/22 10:35:59;;;;;;;14.55;2.60;;;16.70;90.70;;;;;;9177249;19;20018;-64
2022/10/22 10:39:09;;;;;;;9.18;2.35;;;16.70;90.70;;;;;;9177085;19;20014;-64
2022/10/22 10:42:22;;;;;;;11.88;2.70;;;16.70;90.70;;;;;;9179621;19;20086;-64
2022/10/22 10:45:33;;;;;;;8.00;2.90;;;16.70;90.70;;;;;;9176262;19;20100;-63
2022/10/22 10:48:50;;;;;;;10.77;3.00;;;16.80;90.60;;;;;;9173570;19;20007;-62
2022/10/22 10:51:58;;;;;;;16.55;3.45;;;16.80;90.60;;;;;;9176594;19;20053;-64
2022/10/22 10:55:18;;;;;;;10.52;3.80;;;16.80;90.60;;;;;;9179785;19;20385;-61
2022/10/22 10:58:32;;;;;;;10.65;2.90;;;16.80;90.60;;;;;;9178727;19;20024;-63
2022/10/22 11:01:46;;;;;;;9.57;3.22;;;16.80;90.60;;;;;;9173948;19;20499;-64
2022/10/22 11:05:21;;;;;;;9.30;2.97;;;16.80;90.60;;;;;;9168370;19;20018;-63
2022/10/22 11:08:29;;;;;;;13.93;2.97;;;16.80;90.50;;;;;;9168267;19;20010;-61
2022/10/22 11:11:40;;;;;;;16.48;4.18;;;16.80;90.60;;;;;;9162222;19;20022;-61
2022/10/22 11:14:56;;;;;;;15.18;3.70;;;16.80;90.60;;;;;;9163718;19;20018;-65
2022/10/22 11:18:06;;;;;;;15.32;3.78;;;16.80;90.60;;;;;;9163458;19;20022;-64
2022/10/22 11:21:18;;;;;;;10.90;3.97;;;16.80;90.60;;;;;;9163655;19;20025;-61
2022/10/22 11:24:27;;;;;;;18.52;3.85;;;16.80;90.60;;;;;;9160322;19;20026;-66
2022/10/22 11:27:38;;;;;;;10.93;3.17;;;16.80;90.70;;;;;;9160012;19;20018;-65
2022/10/22 11:30:44;;;;;;;8.43;3.13;;;16.80;90.70;;;;;;9172304;19;20039;-64
2022/10/22 11:33:54;;;;;;;16.38;3.25;;;16.80;90.90;;;;;;9162096;19;20023;-65
2022/10/22 11:37:19;;;;;;;11.98;3.55;;;16.90;90.70;;;;;;9171510;19;20027;-64
2022/10/22 11:40:33;;;;;;;11.15;3.05;;;16.90;90.70;;;;;;9166721;19;20109;-64
2022/10/22 11:43:59;;;;;;;15.45;4.30;;;16.90;90.70;;;;;;9173078;19;20992;-65
2022/10/22 11:47:16;;;;;;;17.35;3.42;;;17.00;90.70;;;;;;9173321;19;20028;-65
2022/10/22 11:50:24;;;;;;;18.08;4.03;;;17.10;90.70;;;;;;9171173;19;20029;-68
2022/10/22 11:53:32;;;;;;;10.60;3.58;;;17.10;90.70;;;;;;9167520;19;20015;-66
2022/10/22 11:56:39;;;;;;;23.92;5.63;;;17.20;90.70;;;;;;9175006;19;20022;-65
2022/10/22 11:59:50;;;;;;;13.73;3.33;;;17.20;90.60;;;;;;9176062;19;20034;-67
2022/10/22 12:03:04;;;;;;;12.70;3.75;;;17.30;90.60;;;;;;9175915;19;20011;-66
2022/10/22 12:06:20;;;;;;;8.60;3.47;;;17.30;90.50;;;;;;9176927;19;20022;-65
2022/10/22 12:09:29;;;;;;;14.30;3.60;;;17.30;90.50;;;;;;9171716;19;20571;-64
2022/10/22 12:12:37;;;;;;;13.60;3.65;;;17.40;90.50;;;;;;9177689;19;20013;-67
2022/10/22 12:15:53;;;;;;;14.90;2.92;;;17.40;90.50;;;;;;9181395;19;20054;-64
2022/10/22 12:19:02;;;;;;;12.52;2.60;;;17.50;90.50;;;;;;9181917;19;20469;-63
2022/10/22 12:22:16;;;;;;;8.45;3.03;;;17.50;90.40;;;;;;9183950;19;20024;-66
2022/10/22 12:25:24;;;;;;;9.10;3.30;;;17.60;90.40;;;;;;9181982;19;20127;-63
2022/10/22 12:28:28;;;;;;;9.35;2.60;;;17.70;90.40;;;;;;9175677;19;20015;-65
2022/10/22 12:31:37;;;;;;;10.02;2.78;;;17.70;90.30;;;;;;9179115;19;20025;-65
2022/10/22 12:34:46;;;;;;;14.05;3.35;;;17.80;90.30;;;;;;9181381;19;20047;-67
2022/10/22 12:37:51;;;;;;;17.85;4.00;;;17.80;90.20;;;;;;9181331;19;20048;-65
2022/10/22 12:40:57;;;;;;;15.52;3.40;;;17.80;90.20;;;;;;9176878;19;20078;-65
2022/10/22 12:44:01;;;;;;;12.65;2.83;;;17.90;90.10;;;;;;9169504;19;20078;-63
2022/10/22 12:47:08;;;;;;;13.40;3.25;;;17.90;90.10;;;;;;9178524;19;20021;-66
2022/10/22 12:50:18;;;;;;;11.98;3.17;;;18.00;90.10;;;;;;9182391;19;20048;-64
2022/10/22 12:53:26;;;;;;;10.15;2.83;;;18.00;90.00;;;;;;9180821;19;20383;-64
2022/10/22 12:56:34;;;;;;;17.17;3.15;;;17.90;90.00;;;;;;9182920;19;20014;-66
2022/10/22 12:59:40;;;;;;;10.40;2.60;;;18.00;89.90;;;;;;9182792;19;20202;-63
2022/10/22 13:02:49;;;;;;;15.45;2.75;;;18.00;89.70;;;;;;9182630;19;20007;-66
2022/10/22 13:05:53;;;;;;;10.85;2.78;;;18.10;89.80;;;;;;9182287;19;20035;-64
2022/10/22 13:09:04;;;;;;;13.02;3.03;;;18.00;89.60;;;;;;9181426;19;20041;-68
2022/10/22 13:12:13;;;;;;;18.02;3.53;;;18.10;89.50;;;;;;9182860;19;20014;-64
2022/10/22 13:15:23;;;;;;;14.23;2.72;;;18.10;90.00;;;;;;9181070;19;20022;-66
2022/10/22 13:18:34;;;;;;;14.43;2.75;;;18.10;89.30;;;;;;9183150;19;20039;-64
2022/10/22 13:21:39;;;;;;;16.80;3.33;;;18.10;89.20;;;;;;9182744;19;20015;-63
2022/10/22 13:24:50;;;;;;;11.70;2.50;;;18.10;89.10;;;;;;9179296;19;20018;-66
2022/10/22 13:27:57;;;;;;;7.32;2.00;;;18.10;89.00;;;;;;9179884;19;20086;-66
2022/10/22 13:31:03;;;;;;;12.90;2.30;;;18.10;89.00;;;;;;9181521;19;20035;-64
2022/10/22 13:34:09;;;;;;;13.68;3.05;;;18.10;88.90;;;;;;9182144;19;20790;-65
2022/10/22 13:37:19;;;;;;;19.73;3.10;;;18.10;88.80;;;;;;9177602;19;20082;-63
2022/10/22 13:40:23;;;;;;;14.82;2.78;;;18.10;88.80;;;;;;9180946;19;20479;-65
2022/10/22 13:43:26;;;;;;;12.07;2.88;;;18.10;88.80;;;;;;9177184;19;20072;-65
2022/10/22 13:46:30;;;;;;;12.15;2.55;;;18.10;88.70;;;;;;9181770;19;20014;-65
2022/10/22 13:49:36;;;;;;;7.00;2.50;;;18.10;88.60;;;;;;9177817;19;20056;-68
2022/10/22 13:52:42;;;;;;;12.20;2.25;;;18.10;88.40;;;;;;9182182;19;20029;-64
2022/10/22 13:55:49;;;;;;;11.98;2.85;;;18.10;88.30;;;;;;9181259;19;20025;-66
2022/10/22 13:58:52;;;;;;;13.15;2.35;;;18.00;88.20;;;;;;9180325;19;20579;-63
2022/10/22 14:01:56;;;;;;;;;;;18.00;88.20;;;;;;9179215;19;20036;-67
2022/10/22 14:05:03;;;;;;;9.15;2.38;;;18.00;88.20;;;;;;9174827;19;20283;-65
2022/10/22 14:08:12;;;;;;;11.55;2.38;;;18.00;88.10;;;;;;9174213;19;20690;-66
2022/10/22 14:11:15;;;;;;;11.07;2.65;;;17.90;87.90;;;;;;9175657;19;20010;-65
2022/10/22 14:14:19;;;;;;;17.55;2.85;;;17.90;87.90;;;;;;9175442;19;20039;-65
2022/10/22 14:17:23;;;;;;;10.50;2.80;;;17.80;87.80;;;;;;9177867;19;20022;-63
2022/10/22 14:20:31;;;;;;;9.65;1.80;;;17.80;87.80;;;;;;9176468;19;20022;-66
2022/10/22 14:23:36;;;;;;;14.68;2.97;;;17.80;87.80;;;;;;9179469;19;20474;-66
2022/10/22 14:26:40;;;;;;;14.80;2.72;;;17.80;87.70;;;;;;9175331;19;20476;-64
2022/10/22 14:29:44;;;;;;;12.00;2.35;;;17.80;87.70;;;;;;9175024;19;20018;-65
2022/10/22 14:32:47;;;;;;;16.98;2.63;;;17.70;87.60;;;;;;9180598;19;20347;-67
2022/10/22 14:35:53;;;;;;;16.65;2.63;;;17.70;87.60;;;;;;9178213;19;20367;-64
2022/10/22 14:38:57;;;;;;;10.52;1.85;;;17.70;87.50;;;;;;9176239;19;20024;-67
2022/10/22 14:42:00;;;;;;;12.32;2.05;;;17.70;87.50;;;;;;9173631;19;20033;-64
2022/10/22 14:45:04;;;;;;;13.25;2.20;;;17.70;87.50;;;;;;9171977;19;20022;-67
2022/10/22 14:48:08;;;;;;;10.18;2.17;;;17.60;88.00;;;;;;9173829;19;20019;-64
2022/10/22 14:51:17;;;;;;;10.45;2.08;;;17.60;87.30;;;;;;9179315;19;20392;-64
2022/10/22 14:54:20;;;;;;;12.63;2.50;;;17.60;87.20;;;;;;9171607;19;20085;-65
2022/10/22 14:57:24;;;;;;;8.77;2.50;;;17.60;87.20;;;;;;9173234;19;20010;-65
2022/10/22 15:00:28;;;;;;;17.75;1.83;;;17.60;87.20;;;;;;9168433;19;20467;-66
2022/10/22 15:03:32;;;;;;;13.95;2.60;;;17.60;87.10;;;;;;9157986;19;20039;-65
2022/10/22 15:06:37;;;;;;;21.02;3.00;;;17.40;87.00;;;;;;9173768;19;20022;-67
2022/10/22 15:09:41;;;;;;;16.08;2.33;;;17.60;87.00;;;;;;9166846;19;20085;-66
2022/10/22 15:12:45;;;;;;;16.00;2.20;;;17.50;86.90;;;;;;9168514;19;20015;-67
2022/10/22 15:15:48;;;;;;;9.85;2.08;;;17.50;86.90;;;;;;9168014;19;20034;-65
2022/10/22 15:18:53;;;;;;;7.40;2.03;;;17.50;86.80;;;;;;9168157;19;20052;-65
2022/10/22 15:21:58;;;;;;;12.77;3.00;;;17.50;86.90;;;;;;9172493;19;20025;-65
2022/10/22 15:25:02;;;;;;;14.18;2.65;;;17.40;86.60;;;;;;9170140;19;20015;-66
2022/10/22 15:28:06;;;;;;;13.90;2.50;;;17.40;86.60;;;;;;9168939;19;20015;-68
2022/10/22 15:31:14;;;;;;;13.60;2.78;;;17.40;86.70;;;;;;9172064;19;20482;-66
2022/10/22 15:34:23;;;;;;;18.25;2.67;;;17.40;86.60;;;;;;9171176;19;20014;-66
2022/10/22 15:37:29;;;;;;;19.02;2.67;;;17.40;86.50;;;;;;9171175;19;20014;-64
2022/10/22 15:40:33;;;;;;;20.10;2.67;;;17.40;86.50;;;;;;9171912;19;20015;-67
2022/10/22 15:43:37;;;;;;;12.27;2.42;;;17.30;86.50;;;;;;9162737;19;20026;-65
2022/10/22 15:46:41;;;;;;;13.20;2.20;;;17.30;86.60;;;;;;9161869;19;20038;-65
2022/10/22 15:49:45;;;;;;;11.95;2.50;;;17.30;86.50;;;;;;9162351;19;20474;-64
2022/10/22 15:52:50;;;;;;;14.98;2.13;;;17.20;86.50;;;;;;9162343;19;20017;-64
2022/10/22 15:55:54;;;;;;;6.82;1.95;;;17.20;86.50;;;;;;9165093;19;20082;-65
2022/10/22 15:59:01;;;;;;;8.23;1.70;;;17.20;86.50;;;;;;9161914;19;20029;-64
2022/10/22 16:02:06;;;;;;;12.00;2.28;;;17.10;86.50;;;;;;9165462;19;20379;-65
2022/10/22 16:05:10;;;;;;;12.18;2.25;;;17.10;86.50;;;;;;9170761;19;20102;-64